< < Back
Terminal Aerodrome Forecast


Current Version              Previous Versions:   1  2  3  4  5  6  7  8  9  

Terminal Aerodrome Forecast

733
FTUS42 KTAE 021730
TAFABY
TAF
KABY 021730Z 0218/0318 22010KT P6SM VCSH BKN040 OVC100
      TEMPO 0220/0224 5SM -TSRA BKN035CB
     FM030100 26006KT P6SM SCT050 BKN100
     FM030900 22003KT 5SM BR OVC015
     FM031400 24011KT P6SM VCTS BKN025CB=



Latest METAR

540
SAUS70 KWBC 021900 RRB
MTRABY
METAR KABY 021853Z 24006KT 10SM VCTS SCT055 29/19 A3000 RMK AO2 LTG DSNT
NW SLP158 T02890189


USA.gov is the U.S. government's official web portal to all federal, state and local government web resources and services.